sensor_id;sensor_type;location;lat;lon;timestamp;pressure;altitude;pressure_sealevel;temperature;humidity
74346;BME280;62776;50.518;6.732;2022-10-03T00:00:25;97433.50;;;10.92;100.00
74346;BME280;62776;50.518;6.732;2022-10-03T00:16:15;97442.91;;;10.46;100.00
74346;BME280;62776;50.518;6.732;2022-10-03T00:19:12;97459.31;;;10.44;100.00
74346;BME280;62776;50.518;6.732;2022-10-03T00:22:23;97463.63;;;10.39;100.00
74346;BME280;62776;50.518;6.732;2022-10-03T00:25:51;97466.16;;;10.25;100.00
74346;BME280;62776;50.518;6.732;2022-10-03T00:39:02;97462.81;;;10.43;100.00
74346;BME280;62776;50.518;6.732;2022-10-03T00:45:31;97469.75;;;10.45;100.00
74346;BME280;62776;50.518;6.732;2022-10-03T00:54:57;97475.88;;;10.61;100.00
74346;BME280;62776;50.518;6.732;2022-10-03T01:01:01;97481.16;;;10.88;100.00
74346;BME280;62776;50.518;6.732;2022-10-03T01:04:26;97484.59;;;10.80;100.00
74346;BME280;62776;50.518;6.732;2022-10-03T01:07:30;97486.38;;;10.87;100.00
74346;BME280;62776;50.518;6.732;2022-10-03T01:10:44;97478.59;;;10.93;100.00
74346;BME280;62776;50.518;6.732;2022-10-03T01:17:02;97484.66;;;10.93;100.00
74346;BME280;62776;50.518;6.732;2022-10-03T01:19:58;97484.66;;;10.89;100.00
74346;BME280;62776;50.518;6.732;2022-10-03T01:29:17;97475.00;;;10.54;100.00
74346;BME280;62776;50.518;6.732;2022-10-03T01:32:48;97465.38;;;10.37;100.00
74346;BME280;62776;50.518;6.732;2022-10-03T01:36:11;97471.31;;;10.18;100.00
74346;BME280;62776;50.518;6.732;2022-10-03T01:42:11;97457.38;;;10.05;100.00
74346;BME280;62776;50.518;6.732;2022-10-03T01:45:15;97466.03;;;10.02;100.00
74346;BME280;62776;50.518;6.732;2022-10-03T01:54:44;97458.94;;;9.83;100.00
74346;BME280;62776;50.518;6.732;2022-10-03T01:57:53;97465.03;;;9.85;100.00
74346;BME280;62776;50.518;6.732;2022-10-03T02:07:33;97473.69;;;9.86;100.00
74346;BME280;62776;50.518;6.732;2022-10-03T02:10:44;97464.91;;;9.70;100.00
74346;BME280;62776;50.518;6.732;2022-10-03T02:19:29;97482.16;;;9.62;100.00
74346;BME280;62776;50.518;6.732;2022-10-03T02:22:55;97484.47;;;9.30;100.00
74346;BME280;62776;50.518;6.732;2022-10-03T02:26:13;97469.78;;;9.31;100.00
74346;BME280;62776;50.518;6.732;2022-10-03T02:39:46;97473.81;;;9.03;100.00
74346;BME280;62776;50.518;6.732;2022-10-03T02:43:08;97479.78;;;8.95;100.00
74346;BME280;62776;50.518;6.732;2022-10-03T02:52:24;97475.44;;;8.92;100.00
74346;BME280;62776;50.518;6.732;2022-10-03T03:02:35;97473.94;;;9.14;100.00
74346;BME280;62776;50.518;6.732;2022-10-03T03:18:21;97506.22;;;9.46;100.00
74346;BME280;62776;50.518;6.732;2022-10-03T03:30:18;97504.78;;;9.78;100.00
74346;BME280;62776;50.518;6.732;2022-10-03T03:36:31;97511.78;;;9.88;100.00
74346;BME280;62776;50.518;6.732;2022-10-03T03:49:20;97511.81;;;9.94;100.00
74346;BME280;62776;50.518;6.732;2022-10-03T04:02:11;97505.88;;;10.09;100.00
74346;BME280;62776;50.518;6.732;2022-10-03T04:05:11;97505.09;;;10.18;100.00
74346;BME280;62776;50.518;6.732;2022-10-03T04:08:17;97512.00;;;10.13;100.00
74346;BME280;62776;50.518;6.732;2022-10-03T04:15:09;97514.53;;;10.05;100.00
74346;BME280;62776;50.518;6.732;2022-10-03T04:24:59;97519.59;;;9.94;100.00
74346;BME280;62776;50.518;6.732;2022-10-03T04:28:29;97524.84;;;9.99;100.00
74346;BME280;62776;50.518;6.732;2022-10-03T04:37:38;97520.59;;;10.12;100.00
74346;BME280;62776;50.518;6.732;2022-10-03T04:43:34;97517.25;;;10.19;100.00
74346;BME280;62776;50.518;6.732;2022-10-03T04:46:42;97519.72;;;10.11;100.00
74346;BME280;62776;50.518;6.732;2022-10-03T04:52:45;97512.78;;;10.04;100.00
74346;BME280;62776;50.518;6.732;2022-10-03T04:56:03;97515.25;;;9.90;100.00
74346;BME280;62776;50.518;6.732;2022-10-03T04:59:27;97519.59;;;9.93;100.00
74346;BME280;62776;50.518;6.732;2022-10-03T05:05:28;97524.84;;;9.99;100.00
74346;BME280;62776;50.518;6.732;2022-10-03T05:12:12;97530.75;;;9.81;100.00
74346;BME280;62776;50.518;6.732;2022-10-03T05:15:23;97540.28;;;9.79;100.00
74346;BME280;62776;50.518;6.732;2022-10-03T05:18:27;97533.44;;;9.90;100.00
74346;BME280;62776;50.518;6.732;2022-10-03T05:21:37;97542.09;;;9.91;100.00
74346;BME280;62776;50.518;6.732;2022-10-03T05:24:43;97544.66;;;9.86;100.00
74346;BME280;62776;50.518;6.732;2022-10-03T05:27:53;97543.69;;;9.72;100.00
74346;BME280;62776;50.518;6.732;2022-10-03T05:31:03;97550.66;;;9.81;100.00
74346;BME280;62776;50.518;6.732;2022-10-03T05:40:20;97558.28;;;9.64;100.00
74346;BME280;62776;50.518;6.732;2022-10-03T05:49:59;97558.28;;;9.61;100.00
74346;BME280;62776;50.518;6.732;2022-10-03T05:59:17;97553.78;;;9.43;100.00
74346;BME280;62776;50.518;6.732;2022-10-03T06:05:40;97559.94;;;9.56;100.00
74346;BME280;62776;50.518;6.732;2022-10-03T06:08:55;97558.97;;;9.43;100.00
74346;BME280;62776;50.518;6.732;2022-10-03T06:12:05;97559.00;;;9.48;100.00
74346;BME280;62776;50.518;6.732;2022-10-03T06:31:26;97571.81;;;10.19;100.00
74346;BME280;62776;50.518;6.732;2022-10-03T06:34:44;97576.03;;;10.12;100.00
74346;BME280;62776;50.518;6.732;2022-10-03T06:38:05;97576.09;;;10.17;100.00
74346;BME280;62776;50.518;6.732;2022-10-03T06:41:23;97580.56;;;10.33;100.00
74346;BME280;62776;50.518;6.732;2022-10-03T06:44:18;97574.63;;;10.49;100.00
74346;BME280;62776;50.518;6.732;2022-10-03T06:47:26;97577.19;;;10.46;100.00
74346;BME280;62776;50.518;6.732;2022-10-03T06:50:32;97570.31;;;10.54;100.00
74346;BME280;62776;50.518;6.732;2022-10-03T06:53:37;97572.16;;;10.73;100.00
74346;BME280;62776;50.518;6.732;2022-10-03T06:57:18;97573.78;;;10.59;100.00
74346;BME280;62776;50.518;6.732;2022-10-03T07:00:11;97580.81;;;10.80;100.00
74346;BME280;62776;50.518;6.732;2022-10-03T07:28:21;97602.75;;;11.35;100.00
74346;BME280;62776;50.518;6.732;2022-10-03T07:31:34;97606.25;;;11.34;100.00
74346;BME280;62776;50.518;6.732;2022-10-03T07:48:49;97619.44;;;11.87;100.00
74346;BME280;62776;50.518;6.732;2022-10-03T07:55:26;97615.06;;;11.90;100.00
74346;BME280;62776;50.518;6.732;2022-10-03T08:01:26;97623.81;;;12.19;100.00
74346;BME280;62776;50.518;6.732;2022-10-03T08:08:09;97634.22;;;12.16;100.00
74346;BME280;62776;50.518;6.732;2022-10-03T08:11:06;97635.09;;;12.36;100.00
74346;BME280;62776;50.518;6.732;2022-10-03T08:14:15;97634.25;;;12.36;100.00
74346;BME280;62776;50.518;6.732;2022-10-03T08:20:39;97635.97;;;12.55;100.00
74346;BME280;62776;50.518;6.732;2022-10-03T08:27:09;97634.22;;;12.59;100.00
74346;BME280;62776;50.518;6.732;2022-10-03T08:36:17;97629.81;;;13.09;98.72
74346;BME280;62776;50.518;6.732;2022-10-03T08:39:22;97633.19;;;13.37;95.59
74346;BME280;62776;50.518;6.732;2022-10-03T08:54:50;97643.63;;;13.43;85.61
74346;BME280;62776;50.518;6.732;2022-10-03T09:07:53;97651.47;;;13.34;85.19
74346;BME280;62776;50.518;6.732;2022-10-03T09:20:42;97643.63;;;13.43;80.79
74346;BME280;62776;50.518;6.732;2022-10-03T09:24:03;97642.75;;;13.42;80.67
74346;BME280;62776;50.518;6.732;2022-10-03T09:34:02;97653.97;;;13.58;82.77
74346;BME280;62776;50.518;6.732;2022-10-03T10:09:36;97631.78;;;14.27;80.58
74346;BME280;62776;50.518;6.732;2022-10-03T10:16:07;97638.59;;;14.48;78.36
74346;BME280;62776;50.518;6.732;2022-10-03T10:22:41;97627.00;;;14.79;73.98
74346;BME280;62776;50.518;6.732;2022-10-03T10:25:39;97630.31;;;14.96;74.35
74346;BME280;62776;50.518;6.732;2022-10-03T10:32:06;97631.47;;;14.69;75.14
74346;BME280;62776;50.518;6.732;2022-10-03T10:38:34;97629.47;;;14.93;76.50
74346;BME280;62776;50.518;6.732;2022-10-03T10:44:43;97634.75;;;14.90;76.38
74346;BME280;62776;50.518;6.732;2022-10-03T10:48:01;97635.84;;;14.64;76.55
74346;BME280;62776;50.518;6.732;2022-10-03T10:57:20;97615.50;;;14.92;75.84
74346;BME280;62776;50.518;6.732;2022-10-03T11:10:27;97614.00;;;15.51;73.55
74346;BME280;62776;50.518;6.732;2022-10-03T11:20:28;97607.19;;;15.34;74.37
74346;BME280;62776;50.518;6.732;2022-10-03T11:23:46;97613.13;;;15.50;72.95
74346;BME280;62776;50.518;6.732;2022-10-03T11:27:01;97611.56;;;15.34;69.73
74346;BME280;62776;50.518;6.732;2022-10-03T11:30:17;97610.69;;;15.35;72.88
74346;BME280;62776;50.518;6.732;2022-10-03T11:37:16;97607.59;;;15.71;74.85
74346;BME280;62776;50.518;6.732;2022-10-03T11:40:09;97608.59;;;15.63;75.98
74346;BME280;62776;50.518;6.732;2022-10-03T11:46:21;97618.00;;;15.77;71.71
74346;BME280;62776;50.518;6.732;2022-10-03T11:49:40;97618.00;;;15.77;72.69
74346;BME280;62776;50.518;6.732;2022-10-03T11:52:47;97612.72;;;15.80;68.96
74346;BME280;62776;50.518;6.732;2022-10-03T11:55:41;97611.69;;;15.92;72.05
74346;BME280;62776;50.518;6.732;2022-10-03T11:58:53;97596.81;;;15.92;70.81
74346;BME280;62776;50.518;6.732;2022-10-03T12:02:34;97608.34;;;15.79;70.27
74346;BME280;62776;50.518;6.732;2022-10-03T12:08:19;97606.63;;;15.78;70.92
74346;BME280;62776;50.518;6.732;2022-10-03T12:14:44;97611.09;;;15.72;71.40
74346;BME280;62776;50.518;6.732;2022-10-03T12:17:34;97610.97;;;15.79;72.50
74346;BME280;62776;50.518;6.732;2022-10-03T12:20:41;97615.38;;;15.77;69.61
74346;BME280;62776;50.518;6.732;2022-10-03T12:26:50;97608.19;;;15.91;68.93
74346;BME280;62776;50.518;6.732;2022-10-03T12:29:46;97602.16;;;15.86;68.40
74346;BME280;62776;50.518;6.732;2022-10-03T12:42:25;97595.81;;;16.00;68.60
74346;BME280;62776;50.518;6.732;2022-10-03T12:45:44;97587.16;;;15.94;66.59
74346;BME280;62776;50.518;6.732;2022-10-03T12:52:00;97585.38;;;15.98;68.24
74346;BME280;62776;50.518;6.732;2022-10-03T12:54:58;97589.75;;;15.98;69.00
74346;BME280;62776;50.518;6.732;2022-10-03T13:01:24;97586.94;;;16.08;70.49
74346;BME280;62776;50.518;6.732;2022-10-03T13:07:49;97593.81;;;16.15;70.00
74346;BME280;62776;50.518;6.732;2022-10-03T13:11:10;97599.16;;;16.11;69.96
74346;BME280;62776;50.518;6.732;2022-10-03T13:20:31;97589.00;;;16.44;72.11
74346;BME280;62776;50.518;6.732;2022-10-03T13:23:28;97591.63;;;16.44;71.50
74346;BME280;62776;50.518;6.732;2022-10-03T13:29:45;97586.31;;;16.47;71.57
74346;BME280;62776;50.518;6.732;2022-10-03T13:32:37;97586.38;;;16.44;67.87
74346;BME280;62776;50.518;6.732;2022-10-03T13:35:38;97590.31;;;16.18;67.05
74346;BME280;62776;50.518;6.732;2022-10-03T13:42:21;97593.94;;;16.08;68.82
74346;BME280;62776;50.518;6.732;2022-10-03T13:45:20;97572.78;;;16.20;68.73
74346;BME280;62776;50.518;6.732;2022-10-03T13:48:17;97568.47;;;16.16;69.97
74346;BME280;62776;50.518;6.732;2022-10-03T13:51:21;97570.34;;;16.08;69.80
74346;BME280;62776;50.518;6.732;2022-10-03T13:54:24;97563.38;;;16.07;71.05
74346;BME280;62776;50.518;6.732;2022-10-03T13:57:33;97569.63;;;15.98;70.92
74346;BME280;62776;50.518;6.732;2022-10-03T14:00:22;97565.41;;;15.89;69.86
74346;BME280;62776;50.518;6.732;2022-10-03T14:03:54;97563.28;;;15.53;69.20
74346;BME280;62776;50.518;6.732;2022-10-03T14:10:06;97565.75;;;15.65;71.04
74346;BME280;62776;50.518;6.732;2022-10-03T14:22:18;97552.84;;;15.52;69.12
74346;BME280;62776;50.518;6.732;2022-10-03T14:25:24;97539.72;;;15.53;70.51
74346;BME280;62776;50.518;6.732;2022-10-03T14:28:23;97546.50;;;15.66;70.47
74346;BME280;62776;50.518;6.732;2022-10-03T14:31:38;97553.50;;;15.67;68.46
74346;BME280;62776;50.518;6.732;2022-10-03T14:34:45;97545.16;;;15.96;66.05
74346;BME280;62776;50.518;6.732;2022-10-03T14:40:55;97526.22;;;17.65;56.66
74346;BME280;62776;50.518;6.732;2022-10-03T14:43:55;97536.38;;;17.41;57.64
74346;BME280;62776;50.518;6.732;2022-10-03T14:46:59;97532.81;;;17.02;60.41
74346;BME280;62776;50.518;6.732;2022-10-03T14:49:53;97530.50;;;16.85;60.66
74346;BME280;62776;50.518;6.732;2022-10-03T14:52:49;97534.16;;;16.78;62.85
74346;BME280;62776;50.518;6.732;2022-10-03T14:55:51;97537.00;;;17.10;60.58
74346;BME280;62776;50.518;6.732;2022-10-03T14:58:45;97534.44;;;17.07;61.20
74346;BME280;62776;50.518;6.732;2022-10-03T15:01:33;97529.53;;;16.91;62.10
74346;BME280;62776;50.518;6.732;2022-10-03T15:07:14;97534.81;;;16.42;65.15
74346;BME280;62776;50.518;6.732;2022-10-03T15:10:02;97530.72;;;16.26;67.45
74346;BME280;62776;50.518;6.732;2022-10-03T15:13:00;97524.13;;;15.99;66.62
74346;BME280;62776;50.518;6.732;2022-10-03T15:15:47;97524.25;;;15.93;68.91
74346;BME280;62776;50.518;6.732;2022-10-03T15:18:37;97525.31;;;15.80;67.24
74346;BME280;62776;50.518;6.732;2022-10-03T15:21:26;97515.03;;;15.68;67.72
74346;BME280;62776;50.518;6.732;2022-10-03T15:24:20;97517.81;;;15.57;67.78
74346;BME280;62776;50.518;6.732;2022-10-03T15:27:15;97511.69;;;15.58;69.48
74346;BME280;62776;50.518;6.732;2022-10-03T15:30:05;97516.09;;;15.56;68.11
74346;BME280;62776;50.518;6.732;2022-10-03T15:32:53;97512.66;;;15.51;69.85
74346;BME280;62776;50.518;6.732;2022-10-03T15:35:45;97503.06;;;15.50;71.04
74346;BME280;62776;50.518;6.732;2022-10-03T15:38:38;97503.09;;;15.49;70.56
74346;BME280;62776;50.518;6.732;2022-10-03T15:44:30;97500.53;;;15.43;73.36
74346;BME280;62776;50.518;6.732;2022-10-03T15:47:25;97499.28;;;15.05;75.20
74346;BME280;62776;50.518;6.732;2022-10-03T15:50:27;97502.50;;;15.25;75.63
74346;BME280;62776;50.518;6.732;2022-10-03T15:53:27;97497.25;;;15.27;74.48
74346;BME280;62776;50.518;6.732;2022-10-03T15:59:08;97500.72;;;15.27;73.78
74346;BME280;62776;50.518;6.732;2022-10-03T16:02:08;97493.81;;;15.22;74.80
74346;BME280;62776;50.518;6.732;2022-10-03T16:05:06;97499.13;;;15.19;75.24
74346;BME280;62776;50.518;6.732;2022-10-03T16:08:08;97501.88;;;15.07;77.40
74346;BME280;62776;50.518;6.732;2022-10-03T16:11:20;97497.03;;;14.75;77.24
74346;BME280;62776;50.518;6.732;2022-10-03T16:14:27;97486.53;;;14.80;77.88
74346;BME280;62776;50.518;6.732;2022-10-03T16:20:27;97475.38;;;14.64;80.08
74346;BME280;62776;50.518;6.732;2022-10-03T16:23:33;97471.84;;;14.66;80.55
74346;BME280;62776;50.518;6.732;2022-10-03T16:26:30;97459.69;;;14.62;81.23
74346;BME280;62776;50.518;6.732;2022-10-03T16:29:26;97465.84;;;14.58;81.36
74346;BME280;62776;50.518;6.732;2022-10-03T16:32:23;97475.56;;;14.46;82.97
74346;BME280;62776;50.518;6.732;2022-10-03T16:35:32;97468.78;;;14.24;83.47
74346;BME280;62776;50.518;6.732;2022-10-03T16:38:23;97463.47;;;14.31;85.38
74346;BME280;62776;50.518;6.732;2022-10-03T16:41:23;97461.06;;;14.13;85.94
74346;BME280;62776;50.518;6.732;2022-10-03T16:47:09;97457.56;;;14.14;86.98
74346;BME280;62776;50.518;6.732;2022-10-03T16:49:57;97470.66;;;14.09;86.63
74346;BME280;62776;50.518;6.732;2022-10-03T16:53:08;97468.25;;;13.90;88.49
74346;BME280;62776;50.518;6.732;2022-10-03T16:56:05;97452.69;;;13.75;88.86
74346;BME280;62776;50.518;6.732;2022-10-03T16:58:55;97455.28;;;13.78;89.81
74346;BME280;62776;50.518;6.732;2022-10-03T17:01:50;97460.56;;;13.73;90.32
74346;BME280;62776;50.518;6.732;2022-10-03T17:04:40;97462.31;;;13.68;91.14
74346;BME280;62776;50.518;6.732;2022-10-03T17:07:34;97445.84;;;13.62;91.22
74346;BME280;62776;50.518;6.732;2022-10-03T17:10:34;97450.31;;;13.47;91.03
74346;BME280;62776;50.518;6.732;2022-10-03T17:13:37;97455.53;;;13.47;91.67
74346;BME280;62776;50.518;6.732;2022-10-03T17:19:35;97447.84;;;13.29;91.68
74346;BME280;62776;50.518;6.732;2022-10-03T17:22:28;97446.91;;;13.33;92.39
74346;BME280;62776;50.518;6.732;2022-10-03T17:28:17;97449.69;;;13.09;92.90
74346;BME280;62776;50.518;6.732;2022-10-03T17:31:38;97451.47;;;12.95;92.62
74346;BME280;62776;50.518;6.732;2022-10-03T17:34:37;97441.88;;;12.97;93.10
74346;BME280;62776;50.518;6.732;2022-10-03T17:47:10;97439.44;;;12.64;93.94
74346;BME280;62776;50.518;6.732;2022-10-03T17:50:18;97427.31;;;12.51;94.36
74346;BME280;62776;50.518;6.732;2022-10-03T17:53:17;97426.47;;;12.47;94.75
74346;BME280;62776;50.518;6.732;2022-10-03T17:56:13;97424.72;;;12.44;94.93
74346;BME280;62776;50.518;6.732;2022-10-03T17:59:20;97423.94;;;12.29;95.43
74346;BME280;62776;50.518;6.732;2022-10-03T18:07:55;97421.34;;;12.24;96.67
74346;BME280;62776;50.518;6.732;2022-10-03T18:10:48;97421.34;;;12.17;96.70
74346;BME280;62776;50.518;6.732;2022-10-03T18:16:52;97430.06;;;11.98;96.80
74346;BME280;62776;50.518;6.732;2022-10-03T18:19:47;97430.06;;;12.04;96.54
74346;BME280;62776;50.518;6.732;2022-10-03T18:22:36;97432.69;;;12.02;96.35
74346;BME280;62776;50.518;6.732;2022-10-03T18:28:49;97444.00;;;11.88;96.64
74346;BME280;62776;50.518;6.732;2022-10-03T18:31:42;97444.03;;;11.83;97.03
74346;BME280;62776;50.518;6.732;2022-10-03T18:34:41;97442.28;;;11.74;97.48
74346;BME280;62776;50.518;6.732;2022-10-03T18:40:27;97421.44;;;11.58;97.67
74346;BME280;62776;50.518;6.732;2022-10-03T18:43:25;97418.81;;;11.55;98.04
74346;BME280;62776;50.518;6.732;2022-10-03T18:49:01;97425.75;;;11.41;98.93
74346;BME280;62776;50.518;6.732;2022-10-03T18:52:10;97417.06;;;11.26;99.06
74346;BME280;62776;50.518;6.732;2022-10-03T18:55:03;97411.00;;;11.38;99.39
74346;BME280;62776;50.518;6.732;2022-10-03T18:58:04;97412.75;;;11.22;99.38
74346;BME280;62776;50.518;6.732;2022-10-03T19:04:08;97409.28;;;11.20;100.00
74346;BME280;62776;50.518;6.732;2022-10-03T19:06:56;97418.81;;;11.23;100.00
74346;BME280;62776;50.518;6.732;2022-10-03T19:19:32;97404.91;;;10.95;100.00
74346;BME280;62776;50.518;6.732;2022-10-03T19:22:37;97397.97;;;10.93;100.00
74346;BME280;62776;50.518;6.732;2022-10-03T19:25:24;97407.53;;;11.01;100.00
74346;BME280;62776;50.518;6.732;2022-10-03T19:28:35;97405.72;;;10.81;100.00
74346;BME280;62776;50.518;6.732;2022-10-03T19:31:34;97404.00;;;10.83;100.00
74346;BME280;62776;50.518;6.732;2022-10-03T19:34:32;97397.94;;;10.91;100.00
74346;BME280;62776;50.518;6.732;2022-10-03T19:37:38;97405.72;;;10.78;100.00
74346;BME280;62776;50.518;6.732;2022-10-03T19:43:36;97387.53;;;10.73;100.00
74346;BME280;62776;50.518;6.732;2022-10-03T19:52:33;97403.97;;;10.72;100.00
74346;BME280;62776;50.518;6.732;2022-10-03T19:55:29;97401.38;;;10.72;100.00
74346;BME280;62776;50.518;6.732;2022-10-03T19:58:19;97410.94;;;10.81;100.00
74346;BME280;62776;50.518;6.732;2022-10-03T20:01:07;97419.59;;;10.83;100.00
74346;BME280;62776;50.518;6.732;2022-10-03T20:03:55;97427.38;;;10.80;100.00
74346;BME280;62776;50.518;6.732;2022-10-03T20:06:46;97420.44;;;10.77;100.00
74346;BME280;62776;50.518;6.732;2022-10-03T20:09:34;97428.28;;;10.79;100.00
74346;BME280;62776;50.518;6.732;2022-10-03T20:12:26;97422.19;;;10.75;100.00
74346;BME280;62776;50.518;6.732;2022-10-03T20:15:22;97422.16;;;10.66;100.00
74346;BME280;62776;50.518;6.732;2022-10-03T20:18:29;97423.88;;;10.61;100.00
74346;BME280;62776;50.518;6.732;2022-10-03T20:21:28;97428.19;;;10.60;100.00
74346;BME280;62776;50.518;6.732;2022-10-03T20:24:25;97425.63;;;10.65;100.00
74346;BME280;62776;50.518;6.732;2022-10-03T20:27:31;97422.16;;;10.61;100.00
74346;BME280;62776;50.518;6.732;2022-10-03T20:30:29;97422.16;;;10.66;100.00
74346;BME280;62776;50.518;6.732;2022-10-03T20:33:30;97419.56;;;10.60;100.00
74346;BME280;62776;50.518;6.732;2022-10-03T20:36:23;97423.03;;;10.66;100.00
74346;BME280;62776;50.518;6.732;2022-10-03T20:39:19;97416.94;;;10.66;100.00
74346;BME280;62776;50.518;6.732;2022-10-03T20:42:15;97423.91;;;10.67;100.00
74346;BME280;62776;50.518;6.732;2022-10-03T20:45:16;97413.50;;;10.70;100.00
74346;BME280;62776;50.518;6.732;2022-10-03T20:48:10;97409.16;;;10.69;100.00
74346;BME280;62776;50.518;6.732;2022-10-03T20:50:59;97407.28;;;10.24;100.00
74346;BME280;62776;50.518;6.732;2022-10-03T20:53:46;97394.44;;;10.65;100.00
74346;BME280;62776;50.518;6.732;2022-10-03T20:56:50;97403.94;;;10.61;100.00
74346;BME280;62776;50.518;6.732;2022-10-03T20:59:47;97393.53;;;10.58;100.00
74346;BME280;62776;50.518;6.732;2022-10-03T21:03:12;97385.75;;;10.63;100.00
74346;BME280;62776;50.518;6.732;2022-10-03T21:05:53;97397.88;;;10.61;100.00
74346;BME280;62776;50.518;6.732;2022-10-03T21:08:40;97393.56;;;10.64;100.00
74346;BME280;62776;50.518;6.732;2022-10-03T21:11:28;97389.22;;;10.62;100.00
74346;BME280;62776;50.518;6.732;2022-10-03T21:14:25;97398.75;;;10.61;100.00
74346;BME280;62776;50.518;6.732;2022-10-03T21:17:14;97402.19;;;10.51;100.00
74346;BME280;62776;50.518;6.732;2022-10-03T21:20:06;97402.13;;;10.44;100.00
74346;BME280;62776;50.518;6.732;2022-10-03T21:22:56;97405.59;;;10.40;100.00
74346;BME280;62776;50.518;6.732;2022-10-03T21:25:45;97398.66;;;10.37;100.00
74346;BME280;62776;50.518;6.732;2022-10-03T21:28:33;97380.47;;;10.30;100.00
74346;BME280;62776;50.518;6.732;2022-10-03T21:32:07;97379.53;;;10.20;100.00
74346;BME280;62776;50.518;6.732;2022-10-03T21:34:46;97378.66;;;10.15;100.00
74346;BME280;62776;50.518;6.732;2022-10-03T21:41:20;97341.25;;;9.86;100.00
74346;BME280;62776;50.518;6.732;2022-10-03T21:44:28;97347.25;;;9.74;100.00
74346;BME280;62776;50.518;6.732;2022-10-03T21:47:32;97342.94;;;9.81;100.00
74346;BME280;62776;50.518;6.732;2022-10-03T21:50:27;97349.91;;;9.85;100.00
74346;BME280;62776;50.518;6.732;2022-10-03T22:00:19;97351.50;;;9.62;100.00
74346;BME280;62776;50.518;6.732;2022-10-03T22:03:16;97352.34;;;9.59;100.00
74346;BME280;62776;50.518;6.732;2022-10-03T22:06:15;97354.03;;;9.54;100.00
74346;BME280;62776;50.518;6.732;2022-10-03T22:09:10;97348.88;;;9.57;100.00
74346;BME280;62776;50.518;6.732;2022-10-03T22:12:03;97350.53;;;9.50;100.00
74346;BME280;62776;50.518;6.732;2022-10-03T22:15:02;97354.81;;;9.41;100.00
74346;BME280;62776;50.518;6.732;2022-10-03T22:17:57;97351.38;;;9.45;100.00
74346;BME280;62776;50.518;6.732;2022-10-03T22:21:01;97355.56;;;9.22;100.00
74346;BME280;62776;50.518;6.732;2022-10-03T22:23:53;97351.31;;;9.33;100.00
74346;BME280;62776;50.518;6.732;2022-10-03T22:26:45;97347.81;;;9.29;100.00
74346;BME280;62776;50.518;6.732;2022-10-03T22:32:26;97350.28;;;9.13;100.00
74346;BME280;62776;50.518;6.732;2022-10-03T22:35:24;97340.72;;;9.07;100.00
74346;BME280;62776;50.518;6.732;2022-10-03T22:38:17;97336.44;;;9.11;100.00
74346;BME280;62776;50.518;6.732;2022-10-03T22:41:10;97334.66;;;9.04;100.00
74346;BME280;62776;50.518;6.732;2022-10-03T22:44:00;97339.84;;;9.04;100.00
74346;BME280;62776;50.518;6.732;2022-10-03T22:46:55;97337.19;;;8.96;100.00
74346;BME280;62776;50.518;6.732;2022-10-03T22:49:44;97340.63;;;8.97;100.00
74346;BME280;62776;50.518;6.732;2022-10-03T22:52:35;97339.75;;;8.95;100.00
74346;BME280;62776;50.518;6.732;2022-10-03T22:55:23;97341.47;;;8.96;100.00
74346;BME280;62776;50.518;6.732;2022-10-03T22:58:11;97337.19;;;8.95;100.00
74346;BME280;62776;50.518;6.732;2022-10-03T23:00:59;97329.38;;;8.92;100.00
74346;BME280;62776;50.518;6.732;2022-10-03T23:03:46;97340.59;;;8.90;100.00
74346;BME280;62776;50.518;6.732;2022-10-03T23:09:32;97327.59;;;8.86;100.00
74346;BME280;62776;50.518;6.732;2022-10-03T23:12:28;97318.06;;;8.83;100.00
74346;BME280;62776;50.518;6.732;2022-10-03T23:15:17;97301.63;;;8.84;100.00
74346;BME280;62776;50.518;6.732;2022-10-03T23:18:35;97298.13;;;8.76;100.00
74346;BME280;62776;50.518;6.732;2022-10-03T23:21:24;97294.75;;;8.83;100.00
74346;BME280;62776;50.518;6.732;2022-10-03T23:24:18;97296.41;;;8.75;100.00
74346;BME280;62776;50.518;6.732;2022-10-03T23:34:02;97305.00;;;8.74;100.00
74346;BME280;62776;50.518;6.732;2022-10-03T23:36:23;97311.94;;;8.75;100.00
74346;BME280;62776;50.518;6.732;2022-10-03T23:39:31;97309.16;;;8.56;100.00
74346;BME280;62776;50.518;6.732;2022-10-03T23:45:20;97304.94;;;8.65;100.00
74346;BME280;62776;50.518;6.732;2022-10-03T23:48:11;97310.09;;;8.65;100.00
74346;BME280;62776;50.518;6.732;2022-10-03T23:51:02;97304.13;;;8.69;100.00
74346;BME280;62776;50.518;6.732;2022-10-03T23:53:52;97301.53;;;8.69;100.00
74346;BME280;62776;50.518;6.732;2022-10-03T23:56:46;97310.13;;;8.68;100.00
74346;BME280;62776;50.518;6.732;2022-10-03T23:59:35;97310.16;;;8.70;100.00
